sensor_id;sensor_type;location;lat;lon;timestamp;temperature;humidity
33269;DHT22;19640;50.944;5.260;2024-02-23T00:01:50;6.50;99.90
33269;DHT22;19640;50.944;5.260;2024-02-23T00:04:16;6.40;99.90
33269;DHT22;19640;50.944;5.260;2024-02-23T00:06:44;6.30;99.90
33269;DHT22;19640;50.944;5.260;2024-02-23T00:09:10;6.20;99.90
33269;DHT22;19640;50.944;5.260;2024-02-23T00:11:38;6.30;99.90
33269;DHT22;19640;50.944;5.260;2024-02-23T00:14:06;6.20;99.90
33269;DHT22;19640;50.944;5.260;2024-02-23T00:16:42;6.20;99.90
33269;DHT22;19640;50.944;5.260;2024-02-23T00:19:08;6.20;99.90
33269;DHT22;19640;50.944;5.260;2024-02-23T00:21:36;6.20;99.90
33269;DHT22;19640;50.944;5.260;2024-02-23T00:24:02;6.10;99.90
33269;DHT22;19640;50.944;5.260;2024-02-23T00:26:27;6.10;99.90
33269;DHT22;19640;50.944;5.260;2024-02-23T00:28:56;6.20;99.90
33269;DHT22;19640;50.944;5.260;2024-02-23T00:31:22;6.10;99.90
33269;DHT22;19640;50.944;5.260;2024-02-23T00:33:47;6.20;99.90
33269;DHT22;19640;50.944;5.260;2024-02-23T00:36:13;6.30;99.90
33269;DHT22;19640;50.944;5.260;2024-02-23T00:38:39;6.20;99.90
33269;DHT22;19640;50.944;5.260;2024-02-23T00:41:05;6.20;99.90
33269;DHT22;19640;50.944;5.260;2024-02-23T00:43:41;6.20;99.90
33269;DHT22;19640;50.944;5.260;2024-02-23T00:46:07;6.10;99.90
33269;DHT22;19640;50.944;5.260;2024-02-23T00:48:33;6.10;99.90
33269;DHT22;19640;50.944;5.260;2024-02-23T00:50:59;6.00;99.90
33269;DHT22;19640;50.944;5.260;2024-02-23T00:53:24;5.90;99.90
33269;DHT22;19640;50.944;5.260;2024-02-23T00:55:50;6.10;99.90
33269;DHT22;19640;50.944;5.260;2024-02-23T00:58:15;6.10;99.90
33269;DHT22;19640;50.944;5.260;2024-02-23T01:00:41;5.90;99.90
33269;DHT22;19640;50.944;5.260;2024-02-23T01:03:07;5.90;99.90
33269;DHT22;19640;50.944;5.260;2024-02-23T01:05:33;5.90;99.90
33269;DHT22;19640;50.944;5.260;2024-02-23T01:07:58;5.90;99.90
33269;DHT22;19640;50.944;5.260;2024-02-23T01:10:24;6.00;99.90
33269;DHT22;19640;50.944;5.260;2024-02-23T01:12:50;6.00;99.90
33269;DHT22;19640;50.944;5.260;2024-02-23T01:15:16;5.90;99.90
33269;DHT22;19640;50.944;5.260;2024-02-23T01:17:41;5.80;99.90
33269;DHT22;19640;50.944;5.260;2024-02-23T01:20:07;6.00;99.90
33269;DHT22;19640;50.944;5.260;2024-02-23T01:22:33;5.90;99.90
33269;DHT22;19640;50.944;5.260;2024-02-23T01:24:59;5.80;99.90
33269;DHT22;19640;50.944;5.260;2024-02-23T01:27:24;5.70;99.90
33269;DHT22;19640;50.944;5.260;2024-02-23T01:29:50;5.70;99.90
33269;DHT22;19640;50.944;5.260;2024-02-23T01:32:15;5.80;99.90
33269;DHT22;19640;50.944;5.260;2024-02-23T01:34:41;5.80;99.90
33269;DHT22;19640;50.944;5.260;2024-02-23T01:37:07;5.90;99.90
33269;DHT22;19640;50.944;5.260;2024-02-23T01:39:32;5.90;99.90
33269;DHT22;19640;50.944;5.260;2024-02-23T01:41:58;5.90;99.90
33269;DHT22;19640;50.944;5.260;2024-02-23T01:44:24;6.10;99.90
33269;DHT22;19640;50.944;5.260;2024-02-23T01:46:50;6.00;99.90
33269;DHT22;19640;50.944;5.260;2024-02-23T01:49:16;6.00;99.90
33269;DHT22;19640;50.944;5.260;2024-02-23T01:51:42;5.90;99.90
33269;DHT22;19640;50.944;5.260;2024-02-23T01:54:08;5.90;99.90
33269;DHT22;19640;50.944;5.260;2024-02-23T01:56:35;5.70;99.90
33269;DHT22;19640;50.944;5.260;2024-02-23T01:59:02;5.70;99.90
33269;DHT22;19640;50.944;5.260;2024-02-23T02:01:30;5.80;99.90
33269;DHT22;19640;50.944;5.260;2024-02-23T02:03:57;5.60;99.90
33269;DHT22;19640;50.944;5.260;2024-02-23T02:06:24;5.80;99.90
33269;DHT22;19640;50.944;5.260;2024-02-23T02:08:49;5.80;99.90
33269;DHT22;19640;50.944;5.260;2024-02-23T02:11:15;5.90;99.90
33269;DHT22;19640;50.944;5.260;2024-02-23T02:13:41;6.00;99.90
33269;DHT22;19640;50.944;5.260;2024-02-23T02:16:07;5.90;99.90
33269;DHT22;19640;50.944;5.260;2024-02-23T02:18:32;5.80;99.90
33269;DHT22;19640;50.944;5.260;2024-02-23T02:20:58;5.90;99.90
33269;DHT22;19640;50.944;5.260;2024-02-23T02:23:25;5.90;99.90
33269;DHT22;19640;50.944;5.260;2024-02-23T02:25:56;6.10;99.90
33269;DHT22;19640;50.944;5.260;2024-02-23T02:28:23;6.00;99.90
33269;DHT22;19640;50.944;5.260;2024-02-23T02:30:49;6.00;99.90
33269;DHT22;19640;50.944;5.260;2024-02-23T02:33:15;6.00;99.90
33269;DHT22;19640;50.944;5.260;2024-02-23T02:35:41;6.00;99.90
33269;DHT22;19640;50.944;5.260;2024-02-23T02:38:06;6.00;99.90
33269;DHT22;19640;50.944;5.260;2024-02-23T02:40:32;6.00;99.90
33269;DHT22;19640;50.944;5.260;2024-02-23T02:42:58;5.90;99.90
33269;DHT22;19640;50.944;5.260;2024-02-23T02:45:23;5.80;99.90
33269;DHT22;19640;50.944;5.260;2024-02-23T02:47:49;5.80;99.90
33269;DHT22;19640;50.944;5.260;2024-02-23T02:50:15;5.80;99.90
33269;DHT22;19640;50.944;5.260;2024-02-23T02:52:41;5.90;99.90
33269;DHT22;19640;50.944;5.260;2024-02-23T02:55:07;5.90;99.90
33269;DHT22;19640;50.944;5.260;2024-02-23T02:57:33;5.80;99.90
33269;DHT22;19640;50.944;5.260;2024-02-23T03:00:02;5.80;99.90
33269;DHT22;19640;50.944;5.260;2024-02-23T03:02:31;5.90;99.90
33269;DHT22;19640;50.944;5.260;2024-02-23T03:04:56;6.00;99.90
33269;DHT22;19640;50.944;5.260;2024-02-23T03:07:22;5.90;99.90
33269;DHT22;19640;50.944;5.260;2024-02-23T03:09:48;5.90;99.90
33269;DHT22;19640;50.944;5.260;2024-02-23T03:12:15;5.90;99.90
33269;DHT22;19640;50.944;5.260;2024-02-23T03:14:40;5.90;99.90
33269;DHT22;19640;50.944;5.260;2024-02-23T03:17:09;5.90;99.90
33269;DHT22;19640;50.944;5.260;2024-02-23T03:19:36;5.80;99.90
33269;DHT22;19640;50.944;5.260;2024-02-23T03:22:02;5.90;99.90
33269;DHT22;19640;50.944;5.260;2024-02-23T03:24:27;6.00;99.90
33269;DHT22;19640;50.944;5.260;2024-02-23T03:26:53;6.00;99.90
33269;DHT22;19640;50.944;5.260;2024-02-23T03:29:19;6.10;99.90
33269;DHT22;19640;50.944;5.260;2024-02-23T03:31:45;6.10;99.90
33269;DHT22;19640;50.944;5.260;2024-02-23T03:34:11;6.20;99.90
33269;DHT22;19640;50.944;5.260;2024-02-23T03:36:38;6.40;99.90
33269;DHT22;19640;50.944;5.260;2024-02-23T03:39:04;6.30;99.90
33269;DHT22;19640;50.944;5.260;2024-02-23T03:41:30;6.30;99.90
33269;DHT22;19640;50.944;5.260;2024-02-23T03:43:55;6.20;99.90
33269;DHT22;19640;50.944;5.260;2024-02-23T03:46:21;6.10;99.90
33269;DHT22;19640;50.944;5.260;2024-02-23T03:48:47;6.10;99.90
33269;DHT22;19640;50.944;5.260;2024-02-23T03:51:13;6.00;99.90
33269;DHT22;19640;50.944;5.260;2024-02-23T03:53:38;6.10;99.90
33269;DHT22;19640;50.944;5.260;2024-02-23T03:56:04;6.40;99.90
33269;DHT22;19640;50.944;5.260;2024-02-23T03:58:30;6.30;99.90
33269;DHT22;19640;50.944;5.260;2024-02-23T04:00:55;6.30;99.90
33269;DHT22;19640;50.944;5.260;2024-02-23T04:03:21;6.20;99.90
33269;DHT22;19640;50.944;5.260;2024-02-23T04:05:47;6.20;99.90
33269;DHT22;19640;50.944;5.260;2024-02-23T04:08:12;6.20;99.90
33269;DHT22;19640;50.944;5.260;2024-02-23T04:10:38;6.10;99.90
33269;DHT22;19640;50.944;5.260;2024-02-23T04:13:04;6.20;99.90
33269;DHT22;19640;50.944;5.260;2024-02-23T04:15:29;6.20;99.90
33269;DHT22;19640;50.944;5.260;2024-02-23T04:17:55;6.30;99.90
33269;DHT22;19640;50.944;5.260;2024-02-23T04:20:21;6.50;99.90
33269;DHT22;19640;50.944;5.260;2024-02-23T04:22:46;6.50;99.90
33269;DHT22;19640;50.944;5.260;2024-02-23T04:25:12;6.50;99.90
33269;DHT22;19640;50.944;5.260;2024-02-23T04:27:38;6.50;99.90
33269;DHT22;19640;50.944;5.260;2024-02-23T04:30:04;6.60;99.90
33269;DHT22;19640;50.944;5.260;2024-02-23T04:32:31;6.70;99.90
33269;DHT22;19640;50.944;5.260;2024-02-23T04:34:56;6.60;99.90
33269;DHT22;19640;50.944;5.260;2024-02-23T04:37:22;6.60;99.90
33269;DHT22;19640;50.944;5.260;2024-02-23T04:39:48;6.60;99.90
33269;DHT22;19640;50.944;5.260;2024-02-23T04:42:14;6.60;99.90
33269;DHT22;19640;50.944;5.260;2024-02-23T04:44:41;6.50;99.90
33269;DHT22;19640;50.944;5.260;2024-02-23T04:47:08;6.50;99.90
33269;DHT22;19640;50.944;5.260;2024-02-23T04:49:34;6.50;99.90
33269;DHT22;19640;50.944;5.260;2024-02-23T04:52:00;6.60;99.90
33269;DHT22;19640;50.944;5.260;2024-02-23T04:54:25;6.80;99.90
33269;DHT22;19640;50.944;5.260;2024-02-23T04:56:51;6.70;99.90
33269;DHT22;19640;50.944;5.260;2024-02-23T04:59:17;6.70;99.90
33269;DHT22;19640;50.944;5.260;2024-02-23T05:01:42;6.70;99.90
33269;DHT22;19640;50.944;5.260;2024-02-23T05:04:08;6.80;99.90
33269;DHT22;19640;50.944;5.260;2024-02-23T05:06:34;6.80;99.90
33269;DHT22;19640;50.944;5.260;2024-02-23T05:09:01;6.90;99.90
33269;DHT22;19640;50.944;5.260;2024-02-23T05:11:27;6.90;99.90
33269;DHT22;19640;50.944;5.260;2024-02-23T05:13:52;6.80;99.90
33269;DHT22;19640;50.944;5.260;2024-02-23T05:16:18;6.80;99.90
33269;DHT22;19640;50.944;5.260;2024-02-23T05:18:44;6.80;99.90
33269;DHT22;19640;50.944;5.260;2024-02-23T05:21:14;6.80;99.90
33269;DHT22;19640;50.944;5.260;2024-02-23T05:23:39;6.80;99.90
33269;DHT22;19640;50.944;5.260;2024-02-23T05:26:05;6.70;99.90
33269;DHT22;19640;50.944;5.260;2024-02-23T05:28:31;6.60;99.90
33269;DHT22;19640;50.944;5.260;2024-02-23T05:30:56;6.70;99.90
33269;DHT22;19640;50.944;5.260;2024-02-23T05:33:22;6.70;99.90
33269;DHT22;19640;50.944;5.260;2024-02-23T05:35:48;6.70;99.90
33269;DHT22;19640;50.944;5.260;2024-02-23T05:38:17;6.80;99.90
33269;DHT22;19640;50.944;5.260;2024-02-23T05:40:43;6.80;99.90
33269;DHT22;19640;50.944;5.260;2024-02-23T05:43:08;6.70;99.90
33269;DHT22;19640;50.944;5.260;2024-02-23T05:45:34;6.70;99.90
33269;DHT22;19640;50.944;5.260;2024-02-23T05:48:00;6.60;99.90
33269;DHT22;19640;50.944;5.260;2024-02-23T05:50:25;6.70;99.90
33269;DHT22;19640;50.944;5.260;2024-02-23T05:52:51;6.60;99.90
33269;DHT22;19640;50.944;5.260;2024-02-23T05:55:18;6.70;99.90
33269;DHT22;19640;50.944;5.260;2024-02-23T05:57:45;6.60;99.90
33269;DHT22;19640;50.944;5.260;2024-02-23T06:00:11;6.80;99.90
33269;DHT22;19640;50.944;5.260;2024-02-23T06:02:37;6.90;99.90
33269;DHT22;19640;50.944;5.260;2024-02-23T06:05:04;6.90;99.90
33269;DHT22;19640;50.944;5.260;2024-02-23T06:07:33;6.70;99.90
33269;DHT22;19640;50.944;5.260;2024-02-23T06:10:00;6.70;99.90
33269;DHT22;19640;50.944;5.260;2024-02-23T06:12:26;6.70;99.90
33269;DHT22;19640;50.944;5.260;2024-02-23T06:14:52;6.80;99.90
33269;DHT22;19640;50.944;5.260;2024-02-23T06:17:18;6.60;99.90
33269;DHT22;19640;50.944;5.260;2024-02-23T06:19:43;6.70;99.90
33269;DHT22;19640;50.944;5.260;2024-02-23T06:22:09;6.60;99.90
33269;DHT22;19640;50.944;5.260;2024-02-23T06:24:37;6.50;99.90
33269;DHT22;19640;50.944;5.260;2024-02-23T06:27:03;6.60;99.90
33269;DHT22;19640;50.944;5.260;2024-02-23T06:29:29;6.60;99.90
33269;DHT22;19640;50.944;5.260;2024-02-23T06:31:55;6.60;99.90
33269;DHT22;19640;50.944;5.260;2024-02-23T06:34:21;6.70;99.90
33269;DHT22;19640;50.944;5.260;2024-02-23T06:36:47;6.70;99.90
33269;DHT22;19640;50.944;5.260;2024-02-23T06:39:13;6.60;99.90
33269;DHT22;19640;50.944;5.260;2024-02-23T06:41:39;6.50;99.90
33269;DHT22;19640;50.944;5.260;2024-02-23T06:44:05;6.40;99.90
33269;DHT22;19640;50.944;5.260;2024-02-23T06:46:31;6.50;99.90
33269;DHT22;19640;50.944;5.260;2024-02-23T06:48:56;6.50;99.90
33269;DHT22;19640;50.944;5.260;2024-02-23T06:51:22;6.50;99.90
33269;DHT22;19640;50.944;5.260;2024-02-23T06:53:48;6.50;99.90
33269;DHT22;19640;50.944;5.260;2024-02-23T06:56:13;6.40;99.90
33269;DHT22;19640;50.944;5.260;2024-02-23T06:58:39;6.30;99.90
33269;DHT22;19640;50.944;5.260;2024-02-23T07:01:05;6.40;99.90
33269;DHT22;19640;50.944;5.260;2024-02-23T07:03:33;6.50;99.90
33269;DHT22;19640;50.944;5.260;2024-02-23T07:05:58;6.50;99.90
33269;DHT22;19640;50.944;5.260;2024-02-23T07:08:24;6.60;99.90
33269;DHT22;19640;50.944;5.260;2024-02-23T07:10:50;6.50;99.90
33269;DHT22;19640;50.944;5.260;2024-02-23T07:13:16;6.70;99.90
33269;DHT22;19640;50.944;5.260;2024-02-23T07:15:43;6.60;99.90
33269;DHT22;19640;50.944;5.260;2024-02-23T07:18:09;6.50;99.90
33269;DHT22;19640;50.944;5.260;2024-02-23T07:20:38;6.50;99.90
33269;DHT22;19640;50.944;5.260;2024-02-23T07:23:04;6.50;99.90
33269;DHT22;19640;50.944;5.260;2024-02-23T07:25:30;6.60;99.90
33269;DHT22;19640;50.944;5.260;2024-02-23T07:27:56;6.60;99.90
33269;DHT22;19640;50.944;5.260;2024-02-23T07:30:22;6.60;99.90
33269;DHT22;19640;50.944;5.260;2024-02-23T07:32:48;6.70;99.90
33269;DHT22;19640;50.944;5.260;2024-02-23T07:35:13;6.80;99.90
33269;DHT22;19640;50.944;5.260;2024-02-23T07:37:39;6.80;99.90
33269;DHT22;19640;50.944;5.260;2024-02-23T07:40:05;6.80;99.90
33269;DHT22;19640;50.944;5.260;2024-02-23T07:42:32;6.90;99.90
33269;DHT22;19640;50.944;5.260;2024-02-23T07:44:58;6.90;99.90
33269;DHT22;19640;50.944;5.260;2024-02-23T07:47:24;6.80;99.90
33269;DHT22;19640;50.944;5.260;2024-02-23T07:49:52;6.80;99.90
33269;DHT22;19640;50.944;5.260;2024-02-23T07:52:17;6.90;99.90
33269;DHT22;19640;50.944;5.260;2024-02-23T07:54:43;7.00;99.90
33269;DHT22;19640;50.944;5.260;2024-02-23T07:57:08;7.00;99.90
33269;DHT22;19640;50.944;5.260;2024-02-23T07:59:34;7.00;99.90
33269;DHT22;19640;50.944;5.260;2024-02-23T08:02:00;7.00;99.90
33269;DHT22;19640;50.944;5.260;2024-02-23T08:04:26;7.10;99.90
33269;DHT22;19640;50.944;5.260;2024-02-23T08:06:52;7.10;99.90
33269;DHT22;19640;50.944;5.260;2024-02-23T08:09:17;7.20;99.90
33269;DHT22;19640;50.944;5.260;2024-02-23T08:11:43;7.20;99.90
33269;DHT22;19640;50.944;5.260;2024-02-23T08:14:09;7.10;99.90
33269;DHT22;19640;50.944;5.260;2024-02-23T08:16:34;7.10;99.90
33269;DHT22;19640;50.944;5.260;2024-02-23T08:19:00;7.10;99.90
33269;DHT22;19640;50.944;5.260;2024-02-23T08:21:26;7.10;99.90
33269;DHT22;19640;50.944;5.260;2024-02-23T08:23:52;7.10;99.90
33269;DHT22;19640;50.944;5.260;2024-02-23T08:26:18;7.20;99.90
33269;DHT22;19640;50.944;5.260;2024-02-23T08:28:44;7.30;99.90
33269;DHT22;19640;50.944;5.260;2024-02-23T08:31:09;7.30;99.90
33269;DHT22;19640;50.944;5.260;2024-02-23T08:33:35;7.40;99.90
33269;DHT22;19640;50.944;5.260;2024-02-23T08:36:01;7.30;99.90
33269;DHT22;19640;50.944;5.260;2024-02-23T08:38:27;7.30;99.90
33269;DHT22;19640;50.944;5.260;2024-02-23T08:40:52;7.30;99.90
33269;DHT22;19640;50.944;5.260;2024-02-23T08:43:18;7.50;99.90
33269;DHT22;19640;50.944;5.260;2024-02-23T08:45:45;7.50;99.90
33269;DHT22;19640;50.944;5.260;2024-02-23T08:48:11;7.70;99.90
33269;DHT22;19640;50.944;5.260;2024-02-23T08:50:40;7.70;99.90
33269;DHT22;19640;50.944;5.260;2024-02-23T08:53:06;7.70;99.90
33269;DHT22;19640;50.944;5.260;2024-02-23T08:55:32;7.80;99.90
33269;DHT22;19640;50.944;5.260;2024-02-23T08:57:59;7.80;99.90
33269;DHT22;19640;50.944;5.260;2024-02-23T09:00:24;8.00;99.90
33269;DHT22;19640;50.944;5.260;2024-02-23T09:02:50;8.00;99.90
33269;DHT22;19640;50.944;5.260;2024-02-23T09:05:16;7.90;99.90
33269;DHT22;19640;50.944;5.260;2024-02-23T09:07:42;8.00;99.90
33269;DHT22;19640;50.944;5.260;2024-02-23T09:10:08;8.00;99.90
33269;DHT22;19640;50.944;5.260;2024-02-23T09:12:34;7.90;99.90
33269;DHT22;19640;50.944;5.260;2024-02-23T09:14:59;8.00;99.90
33269;DHT22;19640;50.944;5.260;2024-02-23T09:17:25;8.00;99.90
33269;DHT22;19640;50.944;5.260;2024-02-23T09:19:51;8.00;99.90
33269;DHT22;19640;50.944;5.260;2024-02-23T09:22:16;7.90;99.90
33269;DHT22;19640;50.944;5.260;2024-02-23T09:24:43;7.90;99.90
33269;DHT22;19640;50.944;5.260;2024-02-23T09:27:10;7.60;99.90
33269;DHT22;19640;50.944;5.260;2024-02-23T09:29:35;7.70;99.90
33269;DHT22;19640;50.944;5.260;2024-02-23T09:32:01;7.70;99.90
33269;DHT22;19640;50.944;5.260;2024-02-23T09:34:27;7.90;99.90
33269;DHT22;19640;50.944;5.260;2024-02-23T09:36:52;8.00;99.90
33269;DHT22;19640;50.944;5.260;2024-02-23T09:39:18;8.00;99.90
33269;DHT22;19640;50.944;5.260;2024-02-23T09:41:45;8.00;99.90
33269;DHT22;19640;50.944;5.260;2024-02-23T09:44:15;8.10;99.90
33269;DHT22;19640;50.944;5.260;2024-02-23T09:46:43;8.30;99.90
33269;DHT22;19640;50.944;5.260;2024-02-23T09:49:11;8.40;99.90
33269;DHT22;19640;50.944;5.260;2024-02-23T09:51:38;8.30;99.90
33269;DHT22;19640;50.944;5.260;2024-02-23T09:54:05;8.30;99.90
33269;DHT22;19640;50.944;5.260;2024-02-23T09:56:30;8.30;99.90
33269;DHT22;19640;50.944;5.260;2024-02-23T09:59:00;8.40;99.90
33269;DHT22;19640;50.944;5.260;2024-02-23T10:01:31;8.30;99.90
33269;DHT22;19640;50.944;5.260;2024-02-23T10:03:59;8.10;99.90
33269;DHT22;19640;50.944;5.260;2024-02-23T10:06:25;8.20;99.90
33269;DHT22;19640;50.944;5.260;2024-02-23T10:08:51;8.10;99.90
33269;DHT22;19640;50.944;5.260;2024-02-23T10:11:24;8.00;99.90
33269;DHT22;19640;50.944;5.260;2024-02-23T10:13:51;7.90;99.90
33269;DHT22;19640;50.944;5.260;2024-02-23T10:16:20;7.90;99.90
33269;DHT22;19640;50.944;5.260;2024-02-23T10:18:47;8.00;99.90
33269;DHT22;19640;50.944;5.260;2024-02-23T10:21:17;8.00;99.90
33269;DHT22;19640;50.944;5.260;2024-02-23T10:23:47;8.10;99.90
33269;DHT22;19640;50.944;5.260;2024-02-23T10:26:13;8.20;99.90
33269;DHT22;19640;50.944;5.260;2024-02-23T10:28:38;8.30;99.90
33269;DHT22;19640;50.944;5.260;2024-02-23T10:31:05;8.30;99.90
33269;DHT22;19640;50.944;5.260;2024-02-23T10:33:31;8.20;99.90
33269;DHT22;19640;50.944;5.260;2024-02-23T10:35:57;8.30;99.90
33269;DHT22;19640;50.944;5.260;2024-02-23T10:38:24;8.30;99.90
33269;DHT22;19640;50.944;5.260;2024-02-23T10:40:53;8.40;99.90
33269;DHT22;19640;50.944;5.260;2024-02-23T10:43:32;8.20;99.90
33269;DHT22;19640;50.944;5.260;2024-02-23T10:45:59;8.30;99.90
33269;DHT22;19640;50.944;5.260;2024-02-23T10:48:29;8.40;99.90
33269;DHT22;19640;50.944;5.260;2024-02-23T10:50:57;8.40;99.90
33269;DHT22;19640;50.944;5.260;2024-02-23T10:53:24;8.40;99.90
33269;DHT22;19640;50.944;5.260;2024-02-23T10:55:54;8.60;99.90
33269;DHT22;19640;50.944;5.260;2024-02-23T10:58:21;8.70;99.90
33269;DHT22;19640;50.944;5.260;2024-02-23T11:00:48;8.80;99.90
33269;DHT22;19640;50.944;5.260;2024-02-23T11:03:14;8.80;99.90
33269;DHT22;19640;50.944;5.260;2024-02-23T11:05:40;9.00;99.90
33269;DHT22;19640;50.944;5.260;2024-02-23T11:08:06;8.80;99.90
33269;DHT22;19640;50.944;5.260;2024-02-23T11:10:41;8.80;99.90
33269;DHT22;19640;50.944;5.260;2024-02-23T11:13:08;8.80;99.90
33269;DHT22;19640;50.944;5.260;2024-02-23T11:15:33;8.90;99.90
33269;DHT22;19640;50.944;5.260;2024-02-23T11:18:30;8.80;99.90
33269;DHT22;19640;50.944;5.260;2024-02-23T11:21:00;8.60;99.90
33269;DHT22;19640;50.944;5.260;2024-02-23T11:23:38;8.60;99.90
33269;DHT22;19640;50.944;5.260;2024-02-23T11:26:05;8.50;99.90
33269;DHT22;19640;50.944;5.260;2024-02-23T11:28:32;8.70;99.90
33269;DHT22;19640;50.944;5.260;2024-02-23T11:30:58;8.80;99.90
33269;DHT22;19640;50.944;5.260;2024-02-23T11:33:28;9.00;99.90
33269;DHT22;19640;50.944;5.260;2024-02-23T11:36:05;9.30;99.90
33269;DHT22;19640;50.944;5.260;2024-02-23T11:38:32;9.30;99.90
33269;DHT22;19640;50.944;5.260;2024-02-23T11:41:00;9.30;99.90
33269;DHT22;19640;50.944;5.260;2024-02-23T11:43:26;9.20;99.90
33269;DHT22;19640;50.944;5.260;2024-02-23T11:45:51;8.90;99.90
33269;DHT22;19640;50.944;5.260;2024-02-23T11:48:17;9.00;99.90
33269;DHT22;19640;50.944;5.260;2024-02-23T11:50:43;8.90;99.90
33269;DHT22;19640;50.944;5.260;2024-02-23T11:53:09;8.90;99.90
33269;DHT22;19640;50.944;5.260;2024-02-23T11:55:35;8.80;99.90
33269;DHT22;19640;50.944;5.260;2024-02-23T11:58:01;8.70;99.90
33269;DHT22;19640;50.944;5.260;2024-02-23T12:00:27;8.70;99.90
33269;DHT22;19640;50.944;5.260;2024-02-23T12:02:55;8.70;99.90
33269;DHT22;19640;50.944;5.260;2024-02-23T12:05:21;8.60;99.90
33269;DHT22;19640;50.944;5.260;2024-02-23T12:07:47;8.80;99.90
33269;DHT22;19640;50.944;5.260;2024-02-23T12:10:13;8.80;99.90
33269;DHT22;19640;50.944;5.260;2024-02-23T12:12:39;8.90;99.90
33269;DHT22;19640;50.944;5.260;2024-02-23T12:15:06;9.10;99.90
33269;DHT22;19640;50.944;5.260;2024-02-23T12:17:32;9.00;99.90
33269;DHT22;19640;50.944;5.260;2024-02-23T12:20:01;9.00;99.90
33269;DHT22;19640;50.944;5.260;2024-02-23T12:22:28;9.10;99.90
33269;DHT22;19640;50.944;5.260;2024-02-23T12:24:56;9.30;99.90
33269;DHT22;19640;50.944;5.260;2024-02-23T12:27:22;9.20;99.90
33269;DHT22;19640;50.944;5.260;2024-02-23T12:29:53;9.10;99.90
33269;DHT22;19640;50.944;5.260;2024-02-23T12:32:23;9.10;99.90
33269;DHT22;19640;50.944;5.260;2024-02-23T12:34:49;9.10;99.90
33269;DHT22;19640;50.944;5.260;2024-02-23T12:37:19;9.00;99.90
33269;DHT22;19640;50.944;5.260;2024-02-23T12:39:45;9.00;99.90
33269;DHT22;19640;50.944;5.260;2024-02-23T12:42:10;8.90;99.90
33269;DHT22;19640;50.944;5.260;2024-02-23T12:44:36;8.90;99.90
33269;DHT22;19640;50.944;5.260;2024-02-23T12:47:02;8.80;99.90
33269;DHT22;19640;50.944;5.260;2024-02-23T12:49:28;8.80;99.90
33269;DHT22;19640;50.944;5.260;2024-02-23T12:51:54;8.80;99.90
33269;DHT22;19640;50.944;5.260;2024-02-23T12:54:19;8.90;99.90
33269;DHT22;19640;50.944;5.260;2024-02-23T12:56:45;8.90;99.90
33269;DHT22;19640;50.944;5.260;2024-02-23T12:59:11;9.00;99.90
33269;DHT22;19640;50.944;5.260;2024-02-23T13:01:37;9.10;99.90
33269;DHT22;19640;50.944;5.260;2024-02-23T13:04:05;9.30;99.90
33269;DHT22;19640;50.944;5.260;2024-02-23T13:06:39;9.60;99.90
33269;DHT22;19640;50.944;5.260;2024-02-23T13:09:06;9.50;99.90
33269;DHT22;19640;50.944;5.260;2024-02-23T13:11:35;9.40;99.90
33269;DHT22;19640;50.944;5.260;2024-02-23T13:14:03;9.40;99.90
33269;DHT22;19640;50.944;5.260;2024-02-23T13:16:29;9.20;99.90
33269;DHT22;19640;50.944;5.260;2024-02-23T13:18:55;9.20;99.90
33269;DHT22;19640;50.944;5.260;2024-02-23T13:21:20;9.10;99.90
33269;DHT22;19640;50.944;5.260;2024-02-23T13:23:46;9.20;99.90
33269;DHT22;19640;50.944;5.260;2024-02-23T13:26:12;9.30;99.90
33269;DHT22;19640;50.944;5.260;2024-02-23T13:28:43;9.30;99.90
33269;DHT22;19640;50.944;5.260;2024-02-23T13:31:09;9.10;99.90
33269;DHT22;19640;50.944;5.260;2024-02-23T13:33:35;9.00;99.90
33269;DHT22;19640;50.944;5.260;2024-02-23T13:36:00;9.00;99.90
33269;DHT22;19640;50.944;5.260;2024-02-23T13:38:26;9.10;99.90
33269;DHT22;19640;50.944;5.260;2024-02-23T13:40:52;9.00;99.90
33269;DHT22;19640;50.944;5.260;2024-02-23T13:43:17;9.00;99.90
33269;DHT22;19640;50.944;5.260;2024-02-23T13:45:51;9.30;99.90
33269;DHT22;19640;50.944;5.260;2024-02-23T13:48:20;9.30;99.90
33269;DHT22;19640;50.944;5.260;2024-02-23T13:50:48;9.40;99.90
33269;DHT22;19640;50.944;5.260;2024-02-23T13:53:14;9.70;99.90
33269;DHT22;19640;50.944;5.260;2024-02-23T13:55:40;9.70;99.90
33269;DHT22;19640;50.944;5.260;2024-02-23T13:58:08;9.50;99.90
33269;DHT22;19640;50.944;5.260;2024-02-23T14:00:33;9.40;99.90
33269;DHT22;19640;50.944;5.260;2024-02-23T14:02:59;9.60;99.90
33269;DHT22;19640;50.944;5.260;2024-02-23T14:05:25;9.70;99.90
33269;DHT22;19640;50.944;5.260;2024-02-23T14:07:51;9.60;99.90
33269;DHT22;19640;50.944;5.260;2024-02-23T14:10:18;9.80;99.90
33269;DHT22;19640;50.944;5.260;2024-02-23T14:12:44;9.90;99.90
33269;DHT22;19640;50.944;5.260;2024-02-23T14:15:09;9.90;99.90
33269;DHT22;19640;50.944;5.260;2024-02-23T14:17:38;9.80;99.90
33269;DHT22;19640;50.944;5.260;2024-02-23T14:20:05;9.80;99.90
33269;DHT22;19640;50.944;5.260;2024-02-23T14:22:32;9.70;99.90
33269;DHT22;19640;50.944;5.260;2024-02-23T14:24:58;9.40;99.90
33269;DHT22;19640;50.944;5.260;2024-02-23T14:27:24;9.30;99.90
33269;DHT22;19640;50.944;5.260;2024-02-23T14:29:50;9.40;99.90
33269;DHT22;19640;50.944;5.260;2024-02-23T14:32:16;9.40;99.90
33269;DHT22;19640;50.944;5.260;2024-02-23T14:34:43;9.50;99.90
33269;DHT22;19640;50.944;5.260;2024-02-23T14:37:09;9.40;99.90
33269;DHT22;19640;50.944;5.260;2024-02-23T14:39:34;9.20;99.90
33269;DHT22;19640;50.944;5.260;2024-02-23T14:42:01;9.30;99.90
33269;DHT22;19640;50.944;5.260;2024-02-23T14:44:26;9.30;99.90
33269;DHT22;19640;50.944;5.260;2024-02-23T14:46:52;9.30;99.90
33269;DHT22;19640;50.944;5.260;2024-02-23T14:49:18;9.50;99.90
33269;DHT22;19640;50.944;5.260;2024-02-23T14:51:44;9.30;99.90
33269;DHT22;19640;50.944;5.260;2024-02-23T14:54:14;9.50;99.90
33269;DHT22;19640;50.944;5.260;2024-02-23T14:56:40;9.50;99.90
33269;DHT22;19640;50.944;5.260;2024-02-23T14:59:07;9.40;99.90
33269;DHT22;19640;50.944;5.260;2024-02-23T15:01:38;9.40;99.90
33269;DHT22;19640;50.944;5.260;2024-02-23T15:04:07;9.50;99.90
33269;DHT22;19640;50.944;5.260;2024-02-23T15:06:32;9.70;99.90
33269;DHT22;19640;50.944;5.260;2024-02-23T15:08:58;9.70;99.90
33269;DHT22;19640;50.944;5.260;2024-02-23T15:11:24;9.70;99.90
33269;DHT22;19640;50.944;5.260;2024-02-23T15:13:50;10.00;99.90
33269;DHT22;19640;50.944;5.260;2024-02-23T15:16:17;9.80;99.90
33269;DHT22;19640;50.944;5.260;2024-02-23T15:18:42;9.80;99.90
33269;DHT22;19640;50.944;5.260;2024-02-23T15:21:08;9.50;99.90
33269;DHT22;19640;50.944;5.260;2024-02-23T15:23:34;9.40;99.90
33269;DHT22;19640;50.944;5.260;2024-02-23T15:26:00;9.60;99.90
33269;DHT22;19640;50.944;5.260;2024-02-23T15:28:25;9.70;99.90
33269;DHT22;19640;50.944;5.260;2024-02-23T15:30:51;9.50;99.90
33269;DHT22;19640;50.944;5.260;2024-02-23T15:33:18;9.40;99.90
33269;DHT22;19640;50.944;5.260;2024-02-23T15:35:43;9.50;99.90
33269;DHT22;19640;50.944;5.260;2024-02-23T15:38:09;9.60;99.90
33269;DHT22;19640;50.944;5.260;2024-02-23T15:40:35;9.60;99.90